sensor_id;sensor_type;location;lat;lon;timestamp;temperature;humidity
43089;DHT22;28709;52.030;5.652;2022-11-15T00:01:35;7.40;99.90
43089;DHT22;28709;52.030;5.652;2022-11-15T00:04:03;7.40;99.90
43089;DHT22;28709;52.030;5.652;2022-11-15T00:06:29;7.30;99.90
43089;DHT22;28709;52.030;5.652;2022-11-15T00:08:57;7.40;99.90
43089;DHT22;28709;52.030;5.652;2022-11-15T00:11:23;7.40;99.90
43089;DHT22;28709;52.030;5.652;2022-11-15T00:13:49;7.40;99.90
43089;DHT22;28709;52.030;5.652;2022-11-15T00:16:15;7.40;99.90
43089;DHT22;28709;52.030;5.652;2022-11-15T00:18:40;7.40;99.90
43089;DHT22;28709;52.030;5.652;2022-11-15T00:21:13;7.40;99.90
43089;DHT22;28709;52.030;5.652;2022-11-15T00:23:39;7.50;99.90
43089;DHT22;28709;52.030;5.652;2022-11-15T00:26:05;7.50;99.90
43089;DHT22;28709;52.030;5.652;2022-11-15T00:28:31;7.50;99.90
43089;DHT22;28709;52.030;5.652;2022-11-15T00:31:01;7.50;99.90
43089;DHT22;28709;52.030;5.652;2022-11-15T00:33:27;7.50;99.90
43089;DHT22;28709;52.030;5.652;2022-11-15T00:35:53;7.60;99.90
43089;DHT22;28709;52.030;5.652;2022-11-15T00:38:18;7.60;99.90
43089;DHT22;28709;52.030;5.652;2022-11-15T00:40:44;7.60;99.90
43089;DHT22;28709;52.030;5.652;2022-11-15T00:43:09;7.60;99.90
43089;DHT22;28709;52.030;5.652;2022-11-15T00:45:35;7.60;99.90
43089;DHT22;28709;52.030;5.652;2022-11-15T00:48:01;7.60;99.90
43089;DHT22;28709;52.030;5.652;2022-11-15T00:50:26;7.60;99.90
43089;DHT22;28709;52.030;5.652;2022-11-15T00:52:52;7.60;99.90
43089;DHT22;28709;52.030;5.652;2022-11-15T00:55:18;7.60;99.90
43089;DHT22;28709;52.030;5.652;2022-11-15T00:57:45;7.60;99.90
43089;DHT22;28709;52.030;5.652;2022-11-15T01:00:11;7.60;99.90
43089;DHT22;28709;52.030;5.652;2022-11-15T01:02:38;7.60;99.90
43089;DHT22;28709;52.030;5.652;2022-11-15T01:05:04;7.60;99.90
43089;DHT22;28709;52.030;5.652;2022-11-15T01:07:30;7.60;99.90
43089;DHT22;28709;52.030;5.652;2022-11-15T01:09:55;7.60;99.90
43089;DHT22;28709;52.030;5.652;2022-11-15T01:12:21;7.60;99.90
43089;DHT22;28709;52.030;5.652;2022-11-15T01:14:47;7.70;99.90
43089;DHT22;28709;52.030;5.652;2022-11-15T01:17:12;7.70;99.90
43089;DHT22;28709;52.030;5.652;2022-11-15T01:19:38;7.70;99.90
43089;DHT22;28709;52.030;5.652;2022-11-15T01:22:03;7.70;99.90
43089;DHT22;28709;52.030;5.652;2022-11-15T01:24:29;7.70;99.90
43089;DHT22;28709;52.030;5.652;2022-11-15T01:26:55;7.80;99.90
43089;DHT22;28709;52.030;5.652;2022-11-15T01:29:20;7.80;99.90
43089;DHT22;28709;52.030;5.652;2022-11-15T01:31:46;7.80;99.90
43089;DHT22;28709;52.030;5.652;2022-11-15T01:34:11;7.80;99.90
43089;DHT22;28709;52.030;5.652;2022-11-15T01:36:37;7.90;99.90
43089;DHT22;28709;52.030;5.652;2022-11-15T01:39:03;7.90;99.90
43089;DHT22;28709;52.030;5.652;2022-11-15T01:41:32;8.00;99.90
43089;DHT22;28709;52.030;5.652;2022-11-15T01:47:04;8.10;99.90
43089;DHT22;28709;52.030;5.652;2022-11-15T01:49:35;8.10;99.90
43089;DHT22;28709;52.030;5.652;2022-11-15T01:52:06;8.10;99.90
43089;DHT22;28709;52.030;5.652;2022-11-15T01:54:33;8.10;99.90
43089;DHT22;28709;52.030;5.652;2022-11-15T01:57:08;8.20;99.90
43089;DHT22;28709;52.030;5.652;2022-11-15T01:59:35;8.20;99.90
43089;DHT22;28709;52.030;5.652;2022-11-15T02:02:01;8.30;99.90
43089;DHT22;28709;52.030;5.652;2022-11-15T02:04:29;8.30;99.90
43089;DHT22;28709;52.030;5.652;2022-11-15T02:06:56;8.40;99.90
43089;DHT22;28709;52.030;5.652;2022-11-15T02:09:21;8.40;99.90
43089;DHT22;28709;52.030;5.652;2022-11-15T02:11:48;8.40;99.90
43089;DHT22;28709;52.030;5.652;2022-11-15T02:14:16;8.50;99.90
43089;DHT22;28709;52.030;5.652;2022-11-15T02:22:14;8.60;99.90
43089;DHT22;28709;52.030;5.652;2022-11-15T02:33:43;8.70;99.90
43089;DHT22;28709;52.030;5.652;2022-11-15T02:39:11;8.80;99.90
43089;DHT22;28709;52.030;5.652;2022-11-15T02:41:53;8.80;99.90
43089;DHT22;28709;52.030;5.652;2022-11-15T02:44:36;8.80;99.90
43089;DHT22;28709;52.030;5.652;2022-11-15T02:47:07;8.90;99.90
43089;DHT22;28709;52.030;5.652;2022-11-15T02:49:52;8.90;99.90
43089;DHT22;28709;52.030;5.652;2022-11-15T02:52:24;8.90;99.90
43089;DHT22;28709;52.030;5.652;2022-11-15T03:00:30;9.10;99.90
43089;DHT22;28709;52.030;5.652;2022-11-15T03:03:29;9.10;99.90
43089;DHT22;28709;52.030;5.652;2022-11-15T03:06:31;9.20;99.90
43089;DHT22;28709;52.030;5.652;2022-11-15T03:09:11;9.20;99.90
43089;DHT22;28709;52.030;5.652;2022-11-15T03:11:47;9.30;99.90
43089;DHT22;28709;52.030;5.652;2022-11-15T03:14:29;9.30;99.90
43089;DHT22;28709;52.030;5.652;2022-11-15T03:19:44;9.40;99.90
43089;DHT22;28709;52.030;5.652;2022-11-15T03:22:20;9.40;99.90
43089;DHT22;28709;52.030;5.652;2022-11-15T03:24:50;9.50;99.90
43089;DHT22;28709;52.030;5.652;2022-11-15T03:27:23;9.50;99.90
43089;DHT22;28709;52.030;5.652;2022-11-15T03:30:00;9.50;99.90
43089;DHT22;28709;52.030;5.652;2022-11-15T03:32:30;9.60;99.90
43089;DHT22;28709;52.030;5.652;2022-11-15T03:35:06;9.60;99.90
43089;DHT22;28709;52.030;5.652;2022-11-15T03:40:15;9.70;99.90
43089;DHT22;28709;52.030;5.652;2022-11-15T03:45:27;9.80;99.90
43089;DHT22;28709;52.030;5.652;2022-11-15T03:48:07;9.80;99.90
43089;DHT22;28709;52.030;5.652;2022-11-15T03:50:36;9.90;99.90
43089;DHT22;28709;52.030;5.652;2022-11-15T03:53:02;9.90;99.90
43089;DHT22;28709;52.030;5.652;2022-11-15T03:55:28;9.90;99.90
43089;DHT22;28709;52.030;5.652;2022-11-15T03:57:57;10.00;99.90
43089;DHT22;28709;52.030;5.652;2022-11-15T04:00:23;10.00;99.90
43089;DHT22;28709;52.030;5.652;2022-11-15T04:02:48;10.00;99.90
43089;DHT22;28709;52.030;5.652;2022-11-15T04:05:14;10.00;99.90
43089;DHT22;28709;52.030;5.652;2022-11-15T04:07:40;10.10;99.90
43089;DHT22;28709;52.030;5.652;2022-11-15T04:10:06;10.10;99.90
43089;DHT22;28709;52.030;5.652;2022-11-15T04:12:37;10.10;99.90
43089;DHT22;28709;52.030;5.652;2022-11-15T04:15:05;10.10;99.90
43089;DHT22;28709;52.030;5.652;2022-11-15T04:17:41;10.20;99.90
43089;DHT22;28709;52.030;5.652;2022-11-15T04:20:15;10.20;99.90
43089;DHT22;28709;52.030;5.652;2022-11-15T04:23:00;10.30;99.90
43089;DHT22;28709;52.030;5.652;2022-11-15T04:25:44;10.30;99.90
43089;DHT22;28709;52.030;5.652;2022-11-15T04:28:10;10.40;99.90
43089;DHT22;28709;52.030;5.652;2022-11-15T04:30:36;10.40;99.90
43089;DHT22;28709;52.030;5.652;2022-11-15T04:33:02;10.50;99.90
43089;DHT22;28709;52.030;5.652;2022-11-15T04:35:28;10.50;99.90
43089;DHT22;28709;52.030;5.652;2022-11-15T04:37:54;10.60;99.90
43089;DHT22;28709;52.030;5.652;2022-11-15T04:40:20;10.60;99.90
43089;DHT22;28709;52.030;5.652;2022-11-15T04:42:46;10.60;99.90
43089;DHT22;28709;52.030;5.652;2022-11-15T04:45:11;10.70;99.90
43089;DHT22;28709;52.030;5.652;2022-11-15T04:47:37;10.70;99.90
43089;DHT22;28709;52.030;5.652;2022-11-15T04:50:03;10.70;99.90
43089;DHT22;28709;52.030;5.652;2022-11-15T04:52:29;10.70;99.90
43089;DHT22;28709;52.030;5.652;2022-11-15T04:54:54;10.80;99.90
43089;DHT22;28709;52.030;5.652;2022-11-15T04:57:20;10.80;99.90
43089;DHT22;28709;52.030;5.652;2022-11-15T04:59:46;10.80;99.90
43089;DHT22;28709;52.030;5.652;2022-11-15T05:02:12;10.80;99.90
43089;DHT22;28709;52.030;5.652;2022-11-15T05:04:37;10.90;99.90
43089;DHT22;28709;52.030;5.652;2022-11-15T05:07:09;10.90;99.90
43089;DHT22;28709;52.030;5.652;2022-11-15T05:09:34;10.90;99.90
43089;DHT22;28709;52.030;5.652;2022-11-15T05:12:00;10.90;99.90
43089;DHT22;28709;52.030;5.652;2022-11-15T05:14:25;10.90;99.90
43089;DHT22;28709;52.030;5.652;2022-11-15T05:16:51;10.90;99.90
43089;DHT22;28709;52.030;5.652;2022-11-15T05:19:16;10.90;99.90
43089;DHT22;28709;52.030;5.652;2022-11-15T05:21:42;11.00;99.90
43089;DHT22;28709;52.030;5.652;2022-11-15T05:24:10;11.00;99.90
43089;DHT22;28709;52.030;5.652;2022-11-15T05:26:36;11.00;99.90
43089;DHT22;28709;52.030;5.652;2022-11-15T05:29:02;11.00;99.90
43089;DHT22;28709;52.030;5.652;2022-11-15T05:31:28;11.00;99.90
43089;DHT22;28709;52.030;5.652;2022-11-15T05:33:55;11.10;99.90
43089;DHT22;28709;52.030;5.652;2022-11-15T05:36:37;11.10;99.90
43089;DHT22;28709;52.030;5.652;2022-11-15T05:39:05;11.10;99.90
43089;DHT22;28709;52.030;5.652;2022-11-15T05:41:36;11.10;99.90
43089;DHT22;28709;52.030;5.652;2022-11-15T05:44:05;11.10;99.90
43089;DHT22;28709;52.030;5.652;2022-11-15T05:46:33;11.10;99.90
43089;DHT22;28709;52.030;5.652;2022-11-15T05:49:00;11.10;99.90
43089;DHT22;28709;52.030;5.652;2022-11-15T05:51:28;11.20;99.90
43089;DHT22;28709;52.030;5.652;2022-11-15T05:53:56;11.20;99.90
43089;DHT22;28709;52.030;5.652;2022-11-15T05:56:22;11.20;99.90
43089;DHT22;28709;52.030;5.652;2022-11-15T05:58:47;11.20;99.90
43089;DHT22;28709;52.030;5.652;2022-11-15T06:01:13;11.10;99.90
43089;DHT22;28709;52.030;5.652;2022-11-15T06:03:39;11.20;99.90
43089;DHT22;28709;52.030;5.652;2022-11-15T06:06:05;11.20;99.90
43089;DHT22;28709;52.030;5.652;2022-11-15T06:08:30;11.20;99.90
43089;DHT22;28709;52.030;5.652;2022-11-15T06:10:56;11.30;99.90
43089;DHT22;28709;52.030;5.652;2022-11-15T06:13:21;11.30;99.90
43089;DHT22;28709;52.030;5.652;2022-11-15T06:15:47;11.30;99.90
43089;DHT22;28709;52.030;5.652;2022-11-15T06:18:13;11.40;99.90
43089;DHT22;28709;52.030;5.652;2022-11-15T06:20:39;11.30;99.90
43089;DHT22;28709;52.030;5.652;2022-11-15T06:23:05;11.40;99.90
43089;DHT22;28709;52.030;5.652;2022-11-15T06:25:31;11.40;99.90
43089;DHT22;28709;52.030;5.652;2022-11-15T06:27:58;11.40;99.90
43089;DHT22;28709;52.030;5.652;2022-11-15T06:30:25;11.40;99.90
43089;DHT22;28709;52.030;5.652;2022-11-15T06:32:51;11.40;99.90
43089;DHT22;28709;52.030;5.652;2022-11-15T06:35:23;11.40;99.90
43089;DHT22;28709;52.030;5.652;2022-11-15T06:37:48;11.40;99.90
43089;DHT22;28709;52.030;5.652;2022-11-15T06:40:14;11.40;99.90
43089;DHT22;28709;52.030;5.652;2022-11-15T06:42:40;11.40;99.90
43089;DHT22;28709;52.030;5.652;2022-11-15T06:45:06;11.40;99.90
43089;DHT22;28709;52.030;5.652;2022-11-15T06:47:31;11.40;99.90
43089;DHT22;28709;52.030;5.652;2022-11-15T06:49:57;11.40;99.90
43089;DHT22;28709;52.030;5.652;2022-11-15T06:52:23;11.40;99.90
43089;DHT22;28709;52.030;5.652;2022-11-15T06:54:48;11.40;99.90
43089;DHT22;28709;52.030;5.652;2022-11-15T06:57:14;11.40;99.90
43089;DHT22;28709;52.030;5.652;2022-11-15T06:59:39;11.40;99.90
43089;DHT22;28709;52.030;5.652;2022-11-15T07:02:05;11.40;99.90
43089;DHT22;28709;52.030;5.652;2022-11-15T07:04:31;11.40;99.90
43089;DHT22;28709;52.030;5.652;2022-11-15T07:06:57;11.40;99.90
43089;DHT22;28709;52.030;5.652;2022-11-15T07:09:22;11.40;99.90
43089;DHT22;28709;52.030;5.652;2022-11-15T07:11:48;11.40;99.90
43089;DHT22;28709;52.030;5.652;2022-11-15T07:14:13;11.40;99.90
43089;DHT22;28709;52.030;5.652;2022-11-15T07:16:39;11.40;99.90
43089;DHT22;28709;52.030;5.652;2022-11-15T07:19:05;11.40;99.90
43089;DHT22;28709;52.030;5.652;2022-11-15T07:21:30;11.40;99.90
43089;DHT22;28709;52.030;5.652;2022-11-15T07:23:56;11.50;99.90
43089;DHT22;28709;52.030;5.652;2022-11-15T07:26:21;11.40;99.90
43089;DHT22;28709;52.030;5.652;2022-11-15T07:28:47;11.50;99.90
43089;DHT22;28709;52.030;5.652;2022-11-15T07:31:13;11.50;99.90
43089;DHT22;28709;52.030;5.652;2022-11-15T07:33:38;11.50;99.90
43089;DHT22;28709;52.030;5.652;2022-11-15T07:36:06;11.50;99.90
43089;DHT22;28709;52.030;5.652;2022-11-15T07:38:32;11.50;99.90
43089;DHT22;28709;52.030;5.652;2022-11-15T07:41:00;11.50;99.90
43089;DHT22;28709;52.030;5.652;2022-11-15T07:43:26;11.50;99.90
43089;DHT22;28709;52.030;5.652;2022-11-15T07:45:56;11.40;99.90
43089;DHT22;28709;52.030;5.652;2022-11-15T07:48:22;11.40;99.90
43089;DHT22;28709;52.030;5.652;2022-11-15T07:50:48;11.40;99.90
43089;DHT22;28709;52.030;5.652;2022-11-15T07:53:14;11.40;99.90
43089;DHT22;28709;52.030;5.652;2022-11-15T07:55:40;11.40;99.90
43089;DHT22;28709;52.030;5.652;2022-11-15T07:58:08;11.40;99.90
43089;DHT22;28709;52.030;5.652;2022-11-15T08:00:34;11.40;99.90
43089;DHT22;28709;52.030;5.652;2022-11-15T08:03:08;11.50;99.90
43089;DHT22;28709;52.030;5.652;2022-11-15T08:05:35;11.40;99.90
43089;DHT22;28709;52.030;5.652;2022-11-15T08:08:01;11.50;99.90
43089;DHT22;28709;52.030;5.652;2022-11-15T08:10:27;11.50;99.90
43089;DHT22;28709;52.030;5.652;2022-11-15T08:13:04;11.50;99.90
43089;DHT22;28709;52.030;5.652;2022-11-15T08:15:30;11.50;99.90
43089;DHT22;28709;52.030;5.652;2022-11-15T08:17:58;11.60;99.90
43089;DHT22;28709;52.030;5.652;2022-11-15T08:20:25;11.60;99.90
43089;DHT22;28709;52.030;5.652;2022-11-15T08:22:51;11.60;99.90
43089;DHT22;28709;52.030;5.652;2022-11-15T08:25:17;11.60;99.90
43089;DHT22;28709;52.030;5.652;2022-11-15T08:27:43;11.70;99.90
43089;DHT22;28709;52.030;5.652;2022-11-15T08:30:09;11.70;99.90
43089;DHT22;28709;52.030;5.652;2022-11-15T08:32:35;11.70;99.90
43089;DHT22;28709;52.030;5.652;2022-11-15T08:35:01;11.70;99.90
43089;DHT22;28709;52.030;5.652;2022-11-15T08:37:26;11.70;99.90
43089;DHT22;28709;52.030;5.652;2022-11-15T08:39:52;11.80;99.90
43089;DHT22;28709;52.030;5.652;2022-11-15T08:42:17;11.80;99.90
43089;DHT22;28709;52.030;5.652;2022-11-15T08:44:43;11.80;99.90
43089;DHT22;28709;52.030;5.652;2022-11-15T08:47:11;11.90;99.90
43089;DHT22;28709;52.030;5.652;2022-11-15T08:49:37;11.90;99.90
43089;DHT22;28709;52.030;5.652;2022-11-15T08:52:03;11.90;99.90
43089;DHT22;28709;52.030;5.652;2022-11-15T08:54:28;11.90;99.90
43089;DHT22;28709;52.030;5.652;2022-11-15T08:56:54;11.90;99.90
43089;DHT22;28709;52.030;5.652;2022-11-15T08:59:19;11.90;99.90
43089;DHT22;28709;52.030;5.652;2022-11-15T09:01:45;11.90;99.90
43089;DHT22;28709;52.030;5.652;2022-11-15T09:04:11;12.00;99.90
43089;DHT22;28709;52.030;5.652;2022-11-15T09:06:36;12.10;99.90
43089;DHT22;28709;52.030;5.652;2022-11-15T09:09:02;12.10;99.90
43089;DHT22;28709;52.030;5.652;2022-11-15T09:11:28;12.00;99.90
43089;DHT22;28709;52.030;5.652;2022-11-15T09:13:54;12.00;99.90
43089;DHT22;28709;52.030;5.652;2022-11-15T09:16:20;12.00;99.90
43089;DHT22;28709;52.030;5.652;2022-11-15T09:18:45;12.00;99.90
43089;DHT22;28709;52.030;5.652;2022-11-15T09:21:11;11.90;99.90
43089;DHT22;28709;52.030;5.652;2022-11-15T09:23:37;11.90;99.90
43089;DHT22;28709;52.030;5.652;2022-11-15T09:26:04;12.00;99.90
43089;DHT22;28709;52.030;5.652;2022-11-15T09:28:31;12.00;99.90
43089;DHT22;28709;52.030;5.652;2022-11-15T09:30:59;12.10;99.90
43089;DHT22;28709;52.030;5.652;2022-11-15T09:33:25;12.10;99.90
43089;DHT22;28709;52.030;5.652;2022-11-15T09:35:51;12.50;99.90
43089;DHT22;28709;52.030;5.652;2022-11-15T09:38:17;12.70;99.90
43089;DHT22;28709;52.030;5.652;2022-11-15T09:40:43;12.70;99.90
43089;DHT22;28709;52.030;5.652;2022-11-15T09:49:11;12.70;99.90
43089;DHT22;28709;52.030;5.652;2022-11-15T09:51:41;13.20;99.90
43089;DHT22;28709;52.030;5.652;2022-11-15T09:57:44;13.90;99.90
43089;DHT22;28709;52.030;5.652;2022-11-15T10:02:59;14.40;99.90
43089;DHT22;28709;52.030;5.652;2022-11-15T10:05:29;14.60;99.90
43089;DHT22;28709;52.030;5.652;2022-11-15T10:07:58;14.60;99.90
43089;DHT22;28709;52.030;5.652;2022-11-15T10:13:16;14.80;99.90
43089;DHT22;28709;52.030;5.652;2022-11-15T10:15:44;14.90;99.90
43089;DHT22;28709;52.030;5.652;2022-11-15T10:18:35;15.00;99.90
43089;DHT22;28709;52.030;5.652;2022-11-15T10:21:18;14.90;99.90
43089;DHT22;28709;52.030;5.652;2022-11-15T10:23:45;14.40;99.90
43089;DHT22;28709;52.030;5.652;2022-11-15T10:26:14;14.10;99.90
43089;DHT22;28709;52.030;5.652;2022-11-15T10:28:40;13.80;99.90
43089;DHT22;28709;52.030;5.652;2022-11-15T10:31:22;13.70;99.90
43089;DHT22;28709;52.030;5.652;2022-11-15T10:33:48;13.90;99.90
43089;DHT22;28709;52.030;5.652;2022-11-15T10:36:17;13.90;99.90
43089;DHT22;28709;52.030;5.652;2022-11-15T10:41:17;13.80;99.90
43089;DHT22;28709;52.030;5.652;2022-11-15T10:43:44;13.60;99.90
43089;DHT22;28709;52.030;5.652;2022-11-15T10:46:22;13.40;99.90
43089;DHT22;28709;52.030;5.652;2022-11-15T10:48:48;13.40;99.90
43089;DHT22;28709;52.030;5.652;2022-11-15T10:51:26;13.90;99.90
43089;DHT22;28709;52.030;5.652;2022-11-15T10:53:55;14.20;99.90
43089;DHT22;28709;52.030;5.652;2022-11-15T10:56:24;14.60;99.90
43089;DHT22;28709;52.030;5.652;2022-11-15T10:58:56;14.90;99.90
43089;DHT22;28709;52.030;5.652;2022-11-15T11:01:24;15.10;99.90
43089;DHT22;28709;52.030;5.652;2022-11-15T11:06:28;15.00;99.90
43089;DHT22;28709;52.030;5.652;2022-11-15T11:09:01;15.00;99.90
43089;DHT22;28709;52.030;5.652;2022-11-15T11:11:48;15.00;99.90
43089;DHT22;28709;52.030;5.652;2022-11-15T11:14:25;15.40;99.90
43089;DHT22;28709;52.030;5.652;2022-11-15T11:30:34;16.50;99.90
43089;DHT22;28709;52.030;5.652;2022-11-15T11:36:17;17.00;99.90
43089;DHT22;28709;52.030;5.652;2022-11-15T11:39:24;17.20;99.90
43089;DHT22;28709;52.030;5.652;2022-11-15T11:42:03;17.10;99.90
43089;DHT22;28709;52.030;5.652;2022-11-15T11:44:32;17.30;99.90
43089;DHT22;28709;52.030;5.652;2022-11-15T11:47:14;17.20;99.90
43089;DHT22;28709;52.030;5.652;2022-11-15T12:00:19;15.60;99.90
43089;DHT22;28709;52.030;5.652;2022-11-15T12:02:55;15.80;99.90
43089;DHT22;28709;52.030;5.652;2022-11-15T12:05:35;16.00;99.90
43089;DHT22;28709;52.030;5.652;2022-11-15T12:08:35;15.90;99.90
43089;DHT22;28709;52.030;5.652;2022-11-15T12:13:31;16.70;99.90
43089;DHT22;28709;52.030;5.652;2022-11-15T12:16:14;17.20;99.90
43089;DHT22;28709;52.030;5.652;2022-11-15T12:18:47;17.20;98.60
43089;DHT22;28709;52.030;5.652;2022-11-15T12:21:21;17.00;98.60
43089;DHT22;28709;52.030;5.652;2022-11-15T12:23:53;16.70;99.20
43089;DHT22;28709;52.030;5.652;2022-11-15T12:26:26;16.40;99.30
43089;DHT22;28709;52.030;5.652;2022-11-15T12:28:55;16.10;99.60
43089;DHT22;28709;52.030;5.652;2022-11-15T12:34:47;15.60;99.60
43089;DHT22;28709;52.030;5.652;2022-11-15T12:36:49;15.50;99.90
43089;DHT22;28709;52.030;5.652;2022-11-15T12:39:16;15.50;99.90
43089;DHT22;28709;52.030;5.652;2022-11-15T12:41:44;15.50;99.70
43089;DHT22;28709;52.030;5.652;2022-11-15T12:44:12;15.60;99.70
43089;DHT22;28709;52.030;5.652;2022-11-15T13:17:43;15.60;99.00
43089;DHT22;28709;52.030;5.652;2022-11-15T13:23:01;15.50;98.50
43089;DHT22;28709;52.030;5.652;2022-11-15T13:30:55;15.10;99.40
43089;DHT22;28709;52.030;5.652;2022-11-15T13:33:30;14.90;99.40
43089;DHT22;28709;52.030;5.652;2022-11-15T13:35:58;14.70;99.80
43089;DHT22;28709;52.030;5.652;2022-11-15T13:38:26;14.60;99.90
43089;DHT22;28709;52.030;5.652;2022-11-15T13:40:52;14.50;99.90
43089;DHT22;28709;52.030;5.652;2022-11-15T13:46:11;14.10;99.90
43089;DHT22;28709;52.030;5.652;2022-11-15T13:48:37;13.90;99.90
43089;DHT22;28709;52.030;5.652;2022-11-15T13:51:06;13.80;99.90
43089;DHT22;28709;52.030;5.652;2022-11-15T13:53:34;13.60;99.90
43089;DHT22;28709;52.030;5.652;2022-11-15T13:56:01;13.50;99.90
43089;DHT22;28709;52.030;5.652;2022-11-15T13:58:29;13.40;99.90
43089;DHT22;28709;52.030;5.652;2022-11-15T14:01:00;13.30;99.90
43089;DHT22;28709;52.030;5.652;2022-11-15T14:03:28;13.20;99.90
43089;DHT22;28709;52.030;5.652;2022-11-15T14:06:05;13.20;99.90
43089;DHT22;28709;52.030;5.652;2022-11-15T14:08:32;13.10;99.90
43089;DHT22;28709;52.030;5.652;2022-11-15T14:11:18;13.00;99.90
43089;DHT22;28709;52.030;5.652;2022-11-15T14:14:23;13.00;99.90
43089;DHT22;28709;52.030;5.652;2022-11-15T14:16:59;13.00;99.90
43089;DHT22;28709;52.030;5.652;2022-11-15T14:25:22;12.80;99.90
43089;DHT22;28709;52.030;5.652;2022-11-15T14:30:39;12.80;99.90
43089;DHT22;28709;52.030;5.652;2022-11-15T14:35:47;12.70;99.90
43089;DHT22;28709;52.030;5.652;2022-11-15T14:38:13;12.70;99.90
43089;DHT22;28709;52.030;5.652;2022-11-15T14:40:39;12.60;99.90
43089;DHT22;28709;52.030;5.652;2022-11-15T14:43:09;12.60;99.90
43089;DHT22;28709;52.030;5.652;2022-11-15T14:45:35;12.60;99.90
43089;DHT22;28709;52.030;5.652;2022-11-15T14:48:01;12.60;99.90
43089;DHT22;28709;52.030;5.652;2022-11-15T14:50:27;12.60;99.90
43089;DHT22;28709;52.030;5.652;2022-11-15T14:52:53;12.60;99.90
43089;DHT22;28709;52.030;5.652;2022-11-15T14:55:22;12.60;99.90
43089;DHT22;28709;52.030;5.652;2022-11-15T14:57:49;12.60;99.90
43089;DHT22;28709;52.030;5.652;2022-11-15T15:00:15;12.60;99.90
43089;DHT22;28709;52.030;5.652;2022-11-15T15:02:43;12.60;99.90
43089;DHT22;28709;52.030;5.652;2022-11-15T15:05:18;12.60;99.90
43089;DHT22;28709;52.030;5.652;2022-11-15T15:07:45;12.60;99.90
43089;DHT22;28709;52.030;5.652;2022-11-15T15:10:12;12.60;99.90
43089;DHT22;28709;52.030;5.652;2022-11-15T15:12:38;12.60;99.90
43089;DHT22;28709;52.030;5.652;2022-11-15T15:15:04;12.60;99.90
43089;DHT22;28709;52.030;5.652;2022-11-15T15:17:30;12.60;99.90
43089;DHT22;28709;52.030;5.652;2022-11-15T15:19:56;12.60;99.90
43089;DHT22;28709;52.030;5.652;2022-11-15T15:22:22;12.60;99.90
43089;DHT22;28709;52.030;5.652;2022-11-15T15:24:50;12.50;99.90
43089;DHT22;28709;52.030;5.652;2022-11-15T15:27:16;12.60;99.90
43089;DHT22;28709;52.030;5.652;2022-11-15T15:29:42;12.60;99.90
43089;DHT22;28709;52.030;5.652;2022-11-15T15:32:08;12.50;99.90
43089;DHT22;28709;52.030;5.652;2022-11-15T15:34:34;12.60;99.90
43089;DHT22;28709;52.030;5.652;2022-11-15T15:37:21;12.60;99.90
43089;DHT22;28709;52.030;5.652;2022-11-15T15:39:51;12.60;99.90
43089;DHT22;28709;52.030;5.652;2022-11-15T15:42:18;12.50;99.90
43089;DHT22;28709;52.030;5.652;2022-11-15T15:44:43;12.50;99.90
43089;DHT22;28709;52.030;5.652;2022-11-15T15:47:20;12.50;99.90
43089;DHT22;28709;52.030;5.652;2022-11-15T15:49:46;12.50;99.90
43089;DHT22;28709;52.030;5.652;2022-11-15T15:52:12;12.50;99.90
43089;DHT22;28709;52.030;5.652;2022-11-15T15:54:38;12.60;99.90
43089;DHT22;28709;52.030;5.652;2022-11-15T15:57:05;12.50;99.90
43089;DHT22;28709;52.030;5.652;2022-11-15T15:59:30;12.50;99.90
43089;DHT22;28709;52.030;5.652;2022-11-15T16:01:56;12.60;99.90
43089;DHT22;28709;52.030;5.652;2022-11-15T16:04:22;12.60;99.90
43089;DHT22;28709;52.030;5.652;2022-11-15T16:06:48;12.60;99.90
43089;DHT22;28709;52.030;5.652;2022-11-15T16:09:16;12.60;99.90
43089;DHT22;28709;52.030;5.652;2022-11-15T16:11:44;12.60;99.90
43089;DHT22;28709;52.030;5.652;2022-11-15T16:14:11;12.60;99.90
43089;DHT22;28709;52.030;5.652;2022-11-15T16:16:36;12.60;99.90
43089;DHT22;28709;52.030;5.652;2022-11-15T16:19:03;12.60;99.90
43089;DHT22;28709;52.030;5.652;2022-11-15T16:21:29;12.60;99.90
43089;DHT22;28709;52.030;5.652;2022-11-15T16:23:54;12.60;99.90
43089;DHT22;28709;52.030;5.652;2022-11-15T16:26:24;12.60;99.90
43089;DHT22;28709;52.030;5.652;2022-11-15T16:28:50;12.60;99.90
43089;DHT22;28709;52.030;5.652;2022-11-15T16:31:16;12.60;99.90
43089;DHT22;28709;52.030;5.652;2022-11-15T16:33:44;12.60;99.90
43089;DHT22;28709;52.030;5.652;2022-11-15T16:36:25;12.60;99.90
43089;DHT22;28709;52.030;5.652;2022-11-15T16:38:52;12.70;99.90
43089;DHT22;28709;52.030;5.652;2022-11-15T16:41:18;12.70;99.90
43089;DHT22;28709;52.030;5.652;2022-11-15T16:43:47;12.60;99.90
43089;DHT22;28709;52.030;5.652;2022-11-15T16:46:24;12.70;99.90
43089;DHT22;28709;52.030;5.652;2022-11-15T16:48:51;12.70;99.90
43089;DHT22;28709;52.030;5.652;2022-11-15T16:51:17;12.70;99.90
43089;DHT22;28709;52.030;5.652;2022-11-15T16:53:43;12.70;99.90
43089;DHT22;28709;52.030;5.652;2022-11-15T16:58:47;12.80;99.90
43089;DHT22;28709;52.030;5.652;2022-11-15T17:01:22;12.80;99.90
43089;DHT22;28709;52.030;5.652;2022-11-15T17:03:48;12.80;99.90
43089;DHT22;28709;52.030;5.652;2022-11-15T17:06:14;12.80;99.90
43089;DHT22;28709;52.030;5.652;2022-11-15T17:08:40;12.80;99.90
43089;DHT22;28709;52.030;5.652;2022-11-15T17:11:07;12.80;99.90
43089;DHT22;28709;52.030;5.652;2022-11-15T17:13:33;12.80;99.90
43089;DHT22;28709;52.030;5.652;2022-11-15T17:16:09;12.80;99.90
43089;DHT22;28709;52.030;5.652;2022-11-15T17:18:36;12.70;99.90
43089;DHT22;28709;52.030;5.652;2022-11-15T17:21:12;12.70;99.90
43089;DHT22;28709;52.030;5.652;2022-11-15T17:23:38;12.60;99.90
43089;DHT22;28709;52.030;5.652;2022-11-15T17:26:04;12.60;99.90
43089;DHT22;28709;52.030;5.652;2022-11-15T17:28:32;12.60;99.90
43089;DHT22;28709;52.030;5.652;2022-11-15T17:30:58;12.50;99.90
43089;DHT22;28709;52.030;5.652;2022-11-15T17:33:24;12.50;99.90
43089;DHT22;28709;52.030;5.652;2022-11-15T17:36:00;12.40;99.90
43089;DHT22;28709;52.030;5.652;2022-11-15T17:38:27;12.40;99.90
43089;DHT22;28709;52.030;5.652;2022-11-15T17:41:08;12.40;99.90
43089;DHT22;28709;52.030;5.652;2022-11-15T17:43:35;12.30;99.90
43089;DHT22;28709;52.030;5.652;2022-11-15T17:46:07;12.30;99.90
43089;DHT22;28709;52.030;5.652;2022-11-15T17:48:33;12.20;99.90
43089;DHT22;28709;52.030;5.652;2022-11-15T17:51:01;12.20;99.90
43089;DHT22;28709;52.030;5.652;2022-11-15T17:53:31;12.20;99.90
43089;DHT22;28709;52.030;5.652;2022-11-15T17:56:07;12.20;99.90
43089;DHT22;28709;52.030;5.652;2022-11-15T17:58:33;12.10;99.90
43089;DHT22;28709;52.030;5.652;2022-11-15T18:01:09;12.20;99.90
43089;DHT22;28709;52.030;5.652;2022-11-15T18:03:36;12.20;99.90
43089;DHT22;28709;52.030;5.652;2022-11-15T18:06:04;12.10;99.90
43089;DHT22;28709;52.030;5.652;2022-11-15T18:08:30;12.10;99.90